createdAt,value
2022-12-17T08:43:17.076Z,100307.56
2022-12-17T08:46:39.519Z,100313.56
2022-12-17T08:54:03.356Z,100331.19
2022-12-17T09:01:53.604Z,100334.66
2022-12-17T09:05:35.129Z,100340.19
2022-12-17T09:09:08.034Z,100337.31
2022-12-17T09:12:29.938Z,100356.38
2022-12-17T09:15:58.383Z,100353.44
2022-12-17T09:20:09.418Z,100355.97
2022-12-17T09:23:44.351Z,100363.84
2022-12-17T09:35:06.549Z,100368.97
2022-12-17T09:38:31.141Z,100368.97
2022-12-17T09:42:28.956Z,100364.88
2022-12-17T09:46:01.080Z,100370.03
2022-12-17T09:49:33.834Z,100373.94
2022-12-17T09:52:59.492Z,100377.59
2022-12-17T09:56:21.286Z,100384.03
2022-12-17T09:59:53.544Z,100388.03
2022-12-17T10:03:15.021Z,100390.19
2022-12-17T10:06:49.828Z,100409.94
2022-12-17T10:10:44.213Z,100404.34
2022-12-17T10:14:05.967Z,100408.44
2022-12-17T10:17:41.654Z,100409.19
2022-12-17T10:21:07.157Z,100413.69
2022-12-17T10:24:29.617Z,100431.22
2022-12-17T10:27:59.048Z,100451.94
2022-12-17T10:31:26.461Z,100456.22
2022-12-17T10:34:54.207Z,100433.50
2022-12-17T10:38:19.964Z,100448.50
2022-12-17T10:41:49.316Z,100432.78
2022-12-17T10:45:10.875Z,100439.12
2022-12-17T11:03:57.240Z,100462.59
2022-12-17T11:07:18.864Z,100468.75
2022-12-17T11:10:43.511Z,100472.13
2022-12-17T11:14:08.129Z,100479.72
2022-12-17T11:17:34.314Z,100505.28
2022-12-17T11:21:12.150Z,100520.78
2022-12-17T11:24:43.314Z,100534.31
2022-12-17T11:28:17.814Z,100547.88
2022-12-17T12:25:48.115Z,100603.63
2022-12-17T12:29:32.027Z,100599.41
2022-12-17T12:33:14.510Z,100597.19
2022-12-17T12:36:38.475Z,100610.09
2022-12-17T12:40:10.385Z,100619.81
2022-12-17T12:43:47.112Z,100619.00
2022-12-17T12:47:25.040Z,100636.72
2022-12-17T12:51:02.769Z,100627.06
2022-12-17T12:55:04.687Z,100653.03
2022-12-17T12:58:44.909Z,100666.75
2022-12-17T13:02:06.469Z,100669.81
2022-12-17T13:05:34.206Z,100681.13
2022-12-17T13:08:37.618Z,100687.22
2022-12-17T13:11:44.170Z,100697.09
2022-12-17T13:14:55.790Z,100686.75
2022-12-17T13:18:20.932Z,100688.81
2022-12-17T13:21:28.288Z,100691.66
2022-12-17T13:24:31.361Z,100702.16
2022-12-17T13:27:33.952Z,100716.28
2022-12-17T13:30:39.781Z,100723.56
2022-12-17T13:34:04.697Z,100716.09
2022-12-17T13:37:13.667Z,100720.12
2022-12-17T13:40:26.977Z,100738.09
2022-12-17T13:43:39.633Z,100735.06
2022-12-17T13:46:47.307Z,100736.88
2022-12-17T13:50:24.536Z,100738.69
2022-12-17T13:53:18.852Z,100738.28
2022-12-17T13:56:27.482Z,100749.13
2022-12-17T13:59:30.393Z,100765.28
2022-12-17T14:02:39.294Z,100765.06
2022-12-17T14:05:44.648Z,100763.25
2022-12-17T14:08:49.167Z,100769.00
2022-12-17T14:12:12.182Z,100757.72
2022-12-17T14:15:24.617Z,100762.41
2022-12-17T14:18:27.994Z,100748.25
2022-12-17T14:21:37.894Z,100759.72
2022-12-17T14:24:49.503Z,100785.09
2022-12-17T14:28:02.994Z,100794.00
2022-12-17T14:31:26.588Z,100812.50
2022-12-17T14:34:42.050Z,100825.59
2022-12-17T14:37:47.460Z,100839.34
2022-12-17T14:40:54.128Z,100851.72
2022-12-17T14:44:01.955Z,100853.22
2022-12-17T14:47:17.656Z,100866.34
2022-12-17T14:50:28.309Z,100872.00
2022-12-17T14:53:31.074Z,100881.72
2022-12-17T14:56:34.127Z,100892.41
2022-12-17T14:59:57.029Z,100897.66
2022-12-17T15:03:41.428Z,100895.78
2022-12-17T15:07:26.721Z,100901.84
2022-12-17T15:10:50.202Z,100905.88
2022-12-17T15:14:34.069Z,100912.19
2022-12-17T15:17:46.897Z,100919.91
2022-12-17T15:21:01.819Z,100929.56
2022-12-17T15:24:14.725Z,100944.47
2022-12-17T15:27:57.688Z,100943.66
2022-12-17T15:32:01.129Z,100941.75
2022-12-17T15:35:03.946Z,100926.88
2022-12-17T15:38:07.809Z,100936.66
2022-12-17T15:41:30.992Z,100941.69
2022-12-17T15:44:34.334Z,100943.22
2022-12-17T15:47:38.964Z,100939.88
2022-12-17T15:50:53.481Z,100942.69
2022-12-17T15:53:56.354Z,100956.41
2022-12-17T15:56:59.317Z,100958.31
2022-12-17T16:00:04.622Z,100966.72
2022-12-17T16:03:08.633Z,100973.19
2022-12-17T16:06:12.418Z,100981.16
2022-12-17T16:09:15.154Z,100980.88
2022-12-17T16:12:18.224Z,100987.09
2022-12-17T16:15:21.050Z,100973.34
2022-12-17T16:18:24.446Z,100964.34
2022-12-17T16:21:27.176Z,100966.44
2022-12-17T16:24:30.232Z,100971.56
2022-12-17T16:27:33.037Z,100990.25
2022-12-17T16:30:58.468Z,100984.22
2022-12-17T16:34:23.974Z,100983.63
2022-12-17T16:37:28.131Z,100993.94
2022-12-17T16:40:32.905Z,100994.53
